• Join FlightAware (Why Join?)
  • Login
  • US Flag 
11:59AM EDT


 

Airport Tracker/Info


-or-


 

Live Flight TrackerFlight Track Log ✈ AWE3418 ✈ 07-Jul-2013 ✈ KPHL - KMHT

Flight Track Log - Related Links

Times and Time Zones

All times are in EDT time to prevent confusion due to time zone crossing. See the AWE3418 flight status page for this flight to view local times or setup timezone preferences in your user account.

Time Position Orientation Groundspeed Altitude Reporting Facility
EDT Latitude Longitude Course Direction KTS MPH feet Rate Location/Type
07:12PM 39.8667 -75.2667 218° Southwest 145 167 800  Level Philadelphia TRACON
07:13PM 39.8333 -75.3000 229° Southwest 199 229 2,500 2,220 Climbing Philadelphia TRACON
07:14PM 39.7833 -75.3500 218° Southwest 255 293 4,900 1,200 Climbing Philadelphia TRACON
07:15PM 39.7167 -75.3167 159° South 296 341 5,100 1,200 Climbing Philadelphia TRACON
07:16PM 39.7333 -75.2167 78° East 292 336 7,500 2,580 Climbing Philadelphia TRACON
07:17PM 39.8000 -75.1667 30° Northeast 317 365 10,100 1,440 Climbing Philadelphia TRACON
07:19PM 39.8072 -74.9133 88° East 330 380 12,100 960 Climbing New York Center
07:20PM 39.8008 -74.7997 94° East 340 391 13,200 1,920 Climbing New York Center
07:21PM 39.8281 -74.6767 74° East 345 397 16,000 2,400 Climbing New York Center
07:22PM 39.9139 -74.5978 35° Northeast 344 396 18,100 2,280 Climbing New York Center
07:23PM 40.0106 -74.5056 36° Northeast 370 426 20,600 2,160 Climbing New York Center
07:24PM 40.0947 -74.4206 38° Northeast 394 453 22,400 1,800 Climbing New York Center
07:25PM 40.1972 -74.3417 30° Northeast 408 470 24,300 1,740 Climbing New York Center
07:26PM 40.3072 -74.2792 23° Northeast 413 475 26,000 840 Climbing New York Center
07:27PM 40.4175 -74.2167 23° Northeast 418 481 26,000  Level New York Center
07:28PM 40.5328 -74.1953 North 417 480 26,000 540 Level New York Center
07:29PM 40.6500 -74.1764 North 417 480 27,200 1,320 Climbing New York Center
07:30PM 40.7694 -74.1578 North 422 486 28,700 1,380 Climbing New York Center
07:32PM 40.9956 -74.1231 North 421 484 31,100 1,200 Climbing Boston Center
07:33PM 41.1211 -74.0989 North 433 498 32,200 900 Climbing Boston Center
07:34PM 41.2447 -74.0606 13° North 445 512 33,000 360 Climbing Boston Center
07:35PM 41.3625 -73.9833 26° Northeast 452 520 33,000  Level Boston Center
07:36PM 41.4886 -73.9033 25° Northeast 475 547 33,000  Level Boston Center
07:37PM 41.6147 -73.8200 26° Northeast 492 566 33,000  Level Boston Center
07:38PM 41.7447 -73.7367 26° Northeast 497 572 33,000 -300 Level Boston Center
07:39PM 41.8542 -73.6497 31° Northeast 490 564 32,400 -900 Descending Boston Center
07:40PM 41.9472 -73.5231 45° Northeast 468 539 31,300 -1,200 Descending Boston Center
07:41PM 42.0378 -73.3961 46° Northeast 468 539 30,100 -2,640 Descending Boston Center
07:42PM 42.1306 -73.2603 47° Northeast 474 545 26,100 -3,240 Descending Boston Center
07:43PM 42.2169 -73.1325 48° Northeast 474 545 23,700 -1,860 Descending Boston Center
07:44PM 42.3011 -73.0128 46° Northeast 453 521 22,400 -1,500 Descending Boston Center
07:45PM 42.3953 -72.8758 47° Northeast 445 512 20,800 -1,500 Descending Boston Center
07:46PM 42.4750 -72.7581 47° Northeast 433 498 19,500 -900 Descending Boston Center
07:47PM 42.5544 -72.6431 47° Northeast 417 480 19,000 -480 Descending Boston Center
07:48PM 42.6358 -72.5275 46° Northeast 417 480 18,600 -1,320 Descending Boston Center
07:49PM 42.7131 -72.4147 47° Northeast 417 480 16,400 -2,160 Descending Boston Center
07:50PM 42.7858 -72.2986 49° Northeast 412 474 14,300 -2,100 Descending Boston Center
07:51PM 42.8064 -72.1600 79° East 375 432 12,300 -1,740 Descending Boston Center
07:52PM 42.8019 -72.0269 93° East 351 404 10,900 -1,500 Descending Boston Center
07:53PM 42.7950 -71.9053 94° East 327 376 9,300 -1,800 Descending Boston Center
07:54PM 42.7883 -71.7894 94° East 312 359 7,300 -1,800 Descending Boston Center
07:55PM 42.7814 -71.6878 95° East 307 353 5,800 -1,740 Descending Boston Center
07:56PM 42.7742 -71.5689 95° East 289 333 3,900 -1,260 Descending Boston Center
07:57PM 42.7736 -71.4783 90° East 274 315 3,300 -480 Descending Boston Center
07:58PM 42.7936 -71.3847 74° East 240 276 3,000 -480 Descending Boston Center
07:59PM 42.8394 -71.3839 North 164 189 2,400 -1,020 Descending Boston Center
08:00PM 42.8833 -71.4086 338° Northwest 154 177 1,000 -1,140 Descending Boston Center
08:01PM 42.9167 -71.4167 350° North 140 161 500 -720 Descending KA90